Time;durP1;ratioP1;P1;durP2;ratioP2;P2;SDS_P1;SDS_P2;PMS_P1;PMS_P2;Temp;Humidity;BMP_temperature;BMP_pressure;BME280_temperature;BME280_humidity;BME280_pressure;Samples;Min_cycle;Max_cycle;Signal;HPM_P1;HPM_P2
2024/03/19 00:00:19;;;;;;;26.33;14.30;;;8.00;99.90;;;;;;5007407;28;20175;-61
2024/03/19 00:02:49;;;;;;;30.23;15.97;;;8.00;99.90;;;;;;5006937;28;20203;-62
2024/03/19 00:05:14;;;;;;;39.60;18.37;;;8.00;99.90;;;;;;5008840;28;20215;-62
2024/03/19 00:07:40;;;;;;;47.13;19.87;;;8.00;99.90;;;;;;5027389;28;20457;-62
2024/03/19 00:10:06;;;;;;;38.93;17.73;;;8.00;99.90;;;;;;5033319;28;20198;-61
2024/03/19 00:12:32;;;;;;;45.63;19.00;;;8.00;99.90;;;;;;5023209;28;20207;-62
2024/03/19 00:14:59;;;;;;;55.57;20.63;;;8.00;99.90;;;;;;5028986;28;20441;-62
2024/03/19 00:17:26;;;;;;;49.33;20.80;;;8.00;99.90;;;;;;5021859;28;20172;-61
2024/03/19 00:19:52;;;;;;;43.20;18.70;;;8.00;99.90;;;;;;5027260;28;20426;-62
2024/03/19 00:22:19;;;;;;;41.30;18.77;;;8.00;99.90;;;;;;5006639;28;20456;-62
2024/03/19 00:24:44;;;;;;;35.00;17.53;;;8.00;99.90;;;;;;5024647;28;20438;-62
2024/03/19 00:27:11;;;;;;;32.47;15.40;;;8.00;99.90;;;;;;5022457;28;20426;-61
2024/03/19 00:29:38;;;;;;;33.23;16.13;;;8.00;99.90;;;;;;5006690;28;20195;-61
2024/03/19 00:32:05;;;;;;;32.07;14.63;;;8.00;99.90;;;;;;5031527;28;20503;-61
2024/03/19 00:34:31;;;;;;;33.10;15.47;;;8.00;99.90;;;;;;5031288;28;20430;-62
2024/03/19 00:36:59;;;;;;;31.20;15.67;;;8.00;99.90;;;;;;5014811;28;20426;-62
2024/03/19 00:39:24;;;;;;;41.67;17.73;;;8.00;99.90;;;;;;5027273;28;20180;-62
2024/03/19 00:41:50;;;;;;;37.37;17.00;;;8.00;99.90;;;;;;5029203;28;20531;-62
2024/03/19 00:44:17;;;;;;;34.23;16.90;;;8.00;99.90;;;;;;5023681;28;20207;-62
2024/03/19 00:46:43;;;;;;;63.53;19.73;;;8.00;99.90;;;;;;5010483;28;20187;-62
2024/03/19 00:49:09;;;;;;;42.23;16.63;;;8.00;99.90;;;;;;5033484;28;20433;-62
2024/03/19 00:51:35;;;;;;;35.93;17.60;;;8.00;99.90;;;;;;5026519;28;20187;-62
2024/03/19 00:54:00;;;;;;;43.37;17.90;;;8.00;99.90;;;;;;5025049;28;20836;-61
2024/03/19 00:56:26;;;;;;;37.63;16.80;;;8.00;99.90;;;;;;5030816;28;20191;-61
2024/03/19 00:58:52;;;;;;;59.53;18.03;;;8.00;99.90;;;;;;5024471;28;20180;-61
2024/03/19 01:01:17;;;;;;;53.30;19.93;;;8.00;99.90;;;;;;5031099;28;20510;-61
2024/03/19 01:03:43;;;;;;;49.50;19.70;;;8.00;99.90;;;;;;5008111;28;20227;-62
2024/03/19 01:06:09;;;;;;;115.67;21.57;;;8.00;99.90;;;;;;5030337;28;20258;-61
2024/03/19 01:08:35;;;;;;;51.37;19.00;;;8.00;99.90;;;;;;5029154;28;20237;-62
2024/03/19 01:11:03;;;;;;;58.97;20.20;;;7.90;99.90;;;;;;5022748;28;20426;-62
2024/03/19 01:13:32;;;;;;;44.90;19.47;;;7.90;99.90;;;;;;5028060;28;20211;-62
2024/03/19 01:15:58;;;;;;;45.67;18.00;;;7.90;99.90;;;;;;5029612;28;20426;-61
2024/03/19 01:18:23;;;;;;;35.57;17.27;;;8.00;99.90;;;;;;5033359;28;20410;-62
2024/03/19 01:20:49;;;;;;;47.17;18.10;;;7.90;99.90;;;;;;5030543;28;20581;-62
2024/03/19 01:23:15;;;;;;;43.60;17.90;;;8.00;99.90;;;;;;5027204;28;20235;-62
2024/03/19 01:25:41;;;;;;;48.30;19.33;;;8.00;99.90;;;;;;5029782;28;20466;-61
2024/03/19 01:28:06;;;;;;;36.40;16.10;;;8.00;99.90;;;;;;5012574;28;20290;-62
2024/03/19 01:30:32;;;;;;;35.20;14.83;;;8.00;99.90;;;;;;5011401;28;20187;-61
2024/03/19 01:32:58;;;;;;;44.23;16.30;;;8.00;99.90;;;;;;5028396;28;20701;-61
2024/03/19 01:35:24;;;;;;;47.60;14.90;;;8.00;99.90;;;;;;5032512;28;20195;-62
2024/03/19 01:37:50;;;;;;;34.37;14.43;;;8.00;99.90;;;;;;5032665;28;20512;-61
2024/03/19 01:40:16;;;;;;;42.83;13.67;;;8.00;99.90;;;;;;5032910;28;20192;-62
2024/03/19 01:42:42;;;;;;;49.47;15.40;;;8.00;99.90;;;;;;5031004;28;20698;-61
2024/03/19 01:45:09;;;;;;;29.50;11.50;;;8.00;99.90;;;;;;5013256;28;20442;-61
2024/03/19 01:47:35;;;;;;;20.83;9.93;;;8.00;99.90;;;;;;5033745;28;20252;-61
2024/03/19 01:50:06;;;;;;;22.60;9.20;;;8.00;99.90;;;;;;5031387;28;20925;-61
2024/03/19 01:52:34;;;;;;;19.27;9.00;;;7.90;99.90;;;;;;5028049;28;20244;-62
2024/03/19 01:55:00;;;;;;;13.80;6.93;;;7.90;99.90;;;;;;5025217;28;20442;-62
2024/03/19 01:57:26;;;;;;;14.80;7.27;;;7.90;99.90;;;;;;5027578;28;20437;-61
2024/03/19 01:59:52;;;;;;;18.77;9.13;;;7.90;99.90;;;;;;5026945;28;20427;-61
2024/03/19 02:02:35;;;;;;;25.37;11.13;;;7.90;99.90;;;;;;5029812;28;20227;-61
2024/03/19 02:05:06;;;;;;;28.63;11.10;;;7.90;99.90;;;;;;5029545;28;20196;-62
2024/03/19 02:07:32;;;;;;;26.27;12.20;;;7.90;99.90;;;;;;5033797;28;20418;-61
2024/03/19 02:09:59;;;;;;;32.17;11.17;;;8.00;99.90;;;;;;5034852;28;20421;-62
2024/03/19 02:12:26;;;;;;;25.40;10.60;;;8.00;99.90;;;;;;5013197;28;20499;-62
2024/03/19 02:14:52;;;;;;;27.20;10.73;;;8.00;99.90;;;;;;5028589;28;20471;-62
2024/03/19 02:17:18;;;;;;;27.70;10.67;;;8.00;99.90;;;;;;5024170;28;20426;-61
2024/03/19 02:19:45;;;;;;;23.70;8.93;;;8.00;99.90;;;;;;5027804;28;20504;-62
2024/03/19 02:22:11;;;;;;;12.93;7.73;;;8.00;99.90;;;;;;5027422;28;20467;-61
2024/03/19 02:24:43;;;;;;;12.50;6.77;;;8.00;99.90;;;;;;5025013;28;20526;-61
2024/03/19 02:27:12;;;;;;;13.60;6.57;;;8.00;99.90;;;;;;5005290;28;20442;-62
2024/03/19 02:29:38;;;;;;;13.70;7.27;;;8.00;99.90;;;;;;5027470;28;20902;-62
2024/03/19 02:32:04;;;;;;;13.10;6.27;;;8.00;99.90;;;;;;5030814;28;20489;-62
2024/03/19 02:34:30;;;;;;;12.60;6.10;;;8.00;99.90;;;;;;5028315;28;20172;-62
2024/03/19 02:36:56;;;;;;;11.93;5.90;;;7.90;99.90;;;;;;5029743;28;20422;-62
2024/03/19 02:39:23;;;;;;;9.33;5.27;;;7.90;99.90;;;;;;5027497;28;20180;-62
2024/03/19 02:41:49;;;;;;;8.90;5.10;;;7.90;99.90;;;;;;5031369;28;20434;-61
2024/03/19 02:44:14;;;;;;;10.60;5.83;;;7.90;99.90;;;;;;5023775;28;20492;-61
2024/03/19 02:46:40;;;;;;;9.60;5.50;;;7.90;99.90;;;;;;5025585;28;20233;-62
2024/03/19 02:49:06;;;;;;;9.73;5.20;;;7.90;99.90;;;;;;5031166;28;20179;-61
2024/03/19 02:51:31;;;;;;;10.80;5.53;;;7.90;99.90;;;;;;5031001;28;20434;-61
2024/03/19 02:53:57;;;;;;;9.10;5.30;;;7.90;99.90;;;;;;5027712;28;20661;-61
2024/03/19 02:56:23;;;;;;;9.33;5.57;;;7.90;99.90;;;;;;5026215;28;20172;-62
2024/03/19 02:58:48;;;;;;;9.60;5.70;;;7.90;99.90;;;;;;5025648;28;20270;-61
2024/03/19 03:01:14;;;;;;;13.20;6.23;;;7.90;99.90;;;;;;5029520;28;20187;-62
2024/03/19 03:03:40;;;;;;;13.17;6.30;;;7.90;99.90;;;;;;5031469;28;20225;-61
2024/03/19 03:06:07;;;;;;;9.63;5.50;;;7.90;99.90;;;;;;5011106;28;20179;-61
2024/03/19 03:08:33;;;;;;;11.43;6.30;;;7.90;99.90;;;;;;5026421;28;20658;-62
2024/03/19 03:10:58;;;;;;;14.60;6.37;;;7.90;99.90;;;;;;5011293;28;20419;-61
2024/03/19 03:13:24;;;;;;;11.77;6.10;;;7.90;99.90;;;;;;5024773;28;20727;-62
2024/03/19 03:15:50;;;;;;;11.97;6.20;;;7.90;99.90;;;;;;5027632;28;20182;-62
2024/03/19 03:18:15;;;;;;;10.17;6.17;;;7.80;99.90;;;;;;5027287;28;20184;-62
2024/03/19 03:20:41;;;;;;;10.20;6.47;;;7.90;99.90;;;;;;5006904;28;20187;-62
2024/03/19 03:23:07;;;;;;;11.20;6.07;;;7.80;99.90;;;;;;5023063;28;20682;-62
2024/03/19 03:25:33;;;;;;;12.73;6.23;;;7.80;99.90;;;;;;5021399;28;20430;-62
2024/03/19 03:27:59;;;;;;;12.73;5.97;;;7.80;99.90;;;;;;5026820;28;20465;-63
2024/03/19 03:30:26;;;;;;;11.70;6.20;;;7.80;99.90;;;;;;5027499;28;20257;-61
2024/03/19 03:32:52;;;;;;;13.03;7.07;;;7.80;99.90;;;;;;5023816;28;20273;-62
2024/03/19 03:35:18;;;;;;;11.03;6.20;;;7.80;99.90;;;;;;5007723;28;20533;-62
2024/03/19 03:37:45;;;;;;;10.90;5.90;;;7.80;99.90;;;;;;5009816;28;20426;-63
2024/03/19 03:40:17;;;;;;;11.43;5.93;;;7.80;99.90;;;;;;5027564;28;20832;-62
2024/03/19 03:42:47;;;;;;;10.53;6.33;;;7.80;99.90;;;;;;5028690;28;20468;-62
2024/03/19 03:45:13;;;;;;;12.50;6.33;;;7.80;99.90;;;;;;5025884;28;20427;-62
2024/03/19 03:47:39;;;;;;;10.90;6.80;;;7.80;99.90;;;;;;5026818;28;20429;-62
2024/03/19 03:50:08;;;;;;;13.97;6.80;;;7.80;99.90;;;;;;5032880;28;20410;-62
2024/03/19 03:52:33;;;;;;;18.47;7.57;;;7.80;99.90;;;;;;5025576;28;20473;-62
2024/03/19 03:55:00;;;;;;;13.13;6.37;;;7.80;99.90;;;;;;5009941;28;20434;-62
2024/03/19 03:57:26;;;;;;;12.00;7.60;;;7.80;99.90;;;;;;5026972;28;20180;-62
2024/03/19 03:59:52;;;;;;;14.80;7.40;;;7.80;99.90;;;;;;5026662;28;20442;-61
2024/03/19 04:02:18;;;;;;;13.00;7.43;;;7.80;99.90;;;;;;5029510;28;20282;-62
2024/03/19 04:04:43;;;;;;;27.67;11.53;;;7.80;99.90;;;;;;5031536;28;20206;-62
2024/03/19 04:07:09;;;;;;;21.57;10.90;;;7.80;99.90;;;;;;5024437;28;20186;-62
2024/03/19 04:09:34;;;;;;;17.90;9.07;;;7.80;99.90;;;;;;5024456;28;20642;-62
2024/03/19 04:12:00;;;;;;;19.50;9.30;;;7.80;99.90;;;;;;5008810;28;20625;-62
2024/03/19 04:14:26;;;;;;;20.53;8.83;;;7.80;99.90;;;;;;5028525;28;20176;-62
2024/03/19 04:16:52;;;;;;;14.50;7.80;;;7.80;99.90;;;;;;5024990;28;20176;-62
2024/03/19 04:19:17;;;;;;;15.27;7.33;;;7.80;99.90;;;;;;5032364;28;20456;-62
2024/03/19 04:21:43;;;;;;;14.97;9.07;;;7.80;99.90;;;;;;5028512;28;20207;-62
2024/03/19 04:24:09;;;;;;;17.90;9.20;;;7.80;99.90;;;;;;5027539;28;21997;-62
2024/03/19 04:26:36;;;;;;;14.93;8.00;;;7.80;99.90;;;;;;5028031;28;20200;-62
2024/03/19 04:29:03;;;;;;;16.97;7.87;;;7.80;99.90;;;;;;5030017;28;20176;-62
2024/03/19 04:31:28;;;;;;;11.30;6.53;;;7.80;99.90;;;;;;5027796;28;20414;-62
2024/03/19 04:33:54;;;;;;;13.80;8.03;;;7.80;99.90;;;;;;5026936;28;20439;-62
2024/03/19 04:36:20;;;;;;;14.70;7.77;;;7.70;99.90;;;;;;5013842;28;20175;-62
2024/03/19 04:38:45;;;;;;;19.43;8.60;;;7.70;99.90;;;;;;5026671;28;20604;-62
2024/03/19 04:41:13;;;;;;;20.90;9.10;;;7.70;99.90;;;;;;5025484;28;20180;-62
2024/03/19 04:43:39;;;;;;;15.87;8.40;;;7.80;99.90;;;;;;5010190;28;20694;-62
2024/03/19 04:46:04;;;;;;;20.57;8.57;;;7.70;99.90;;;;;;5028365;28;20423;-62
2024/03/19 04:48:30;;;;;;;18.00;8.37;;;7.70;99.90;;;;;;5026322;28;20180;-62
2024/03/19 04:50:55;;;;;;;15.83;7.47;;;7.70;99.90;;;;;;5015656;28;20199;-62
2024/03/19 04:53:21;;;;;;;15.43;7.77;;;7.70;99.90;;;;;;5032543;28;20686;-62
2024/03/19 04:55:47;;;;;;;15.20;8.43;;;7.70;99.90;;;;;;5033618;28;20183;-62
2024/03/19 04:58:12;;;;;;;18.40;9.40;;;7.70;99.90;;;;;;5030940;28;20176;-63
2024/03/19 05:00:38;;;;;;;13.93;7.43;;;7.70;99.90;;;;;;5025251;28;20188;-61
2024/03/19 05:03:04;;;;;;;18.63;9.63;;;7.70;99.90;;;;;;5024126;28;20278;-60
2024/03/19 05:05:30;;;;;;;16.13;7.73;;;7.70;99.90;;;;;;5033488;28;20180;-64
2024/03/19 05:07:55;;;;;;;16.73;7.70;;;7.70;99.90;;;;;;5029102;28;20197;-63
2024/03/19 05:10:21;;;;;;;16.00;8.33;;;7.70;99.90;;;;;;5034673;28;20554;-63
2024/03/19 05:12:47;;;;;;;25.77;8.70;;;7.70;99.90;;;;;;5032912;28;20215;-63
2024/03/19 05:15:12;;;;;;;18.47;9.07;;;7.70;99.90;;;;;;5017953;28;20205;-64
2024/03/19 05:17:38;;;;;;;15.57;8.37;;;7.70;99.90;;;;;;5030709;28;20694;-64
2024/03/19 05:20:06;;;;;;;18.37;8.90;;;7.60;99.90;;;;;;5024912;28;20187;-63
2024/03/19 05:22:31;;;;;;;16.00;8.50;;;7.60;99.90;;;;;;5029066;28;20211;-64
2024/03/19 05:24:57;;;;;;;14.77;8.00;;;7.60;99.90;;;;;;5028502;28;20430;-63
2024/03/19 05:27:23;;;;;;;15.10;8.23;;;7.60;99.90;;;;;;5026570;28;20240;-63
2024/03/19 05:29:48;;;;;;;16.67;8.00;;;7.60;99.90;;;;;;5019503;28;20181;-63
2024/03/19 05:32:14;;;;;;;14.77;7.47;;;7.60;99.90;;;;;;5007968;28;20199;-63
2024/03/19 05:34:41;;;;;;;13.50;7.40;;;7.50;99.90;;;;;;5031153;28;20187;-63
2024/03/19 05:37:07;;;;;;;16.07;7.83;;;7.50;99.90;;;;;;5028892;28;20425;-63
2024/03/19 05:39:33;;;;;;;13.10;7.20;;;7.50;99.90;;;;;;5022971;28;20773;-63
2024/03/19 05:41:59;;;;;;;12.03;6.50;;;7.50;99.90;;;;;;5031508;28;20293;-64
2024/03/19 05:44:24;;;;;;;11.33;6.13;;;7.50;99.90;;;;;;5034543;28;21049;-63
2024/03/19 05:46:50;;;;;;;13.00;6.17;;;7.40;99.90;;;;;;5029241;28;20176;-64
2024/03/19 05:49:16;;;;;;;12.47;5.77;;;7.40;99.90;;;;;;5032483;28;20182;-64
2024/03/19 05:51:42;;;;;;;11.83;6.70;;;7.40;99.90;;;;;;5030736;28;20187;-64
2024/03/19 05:54:08;;;;;;;11.27;6.43;;;7.40;99.90;;;;;;5027034;28;20168;-64
2024/03/19 05:56:34;;;;;;;14.50;6.77;;;7.40;99.90;;;;;;5006604;28;20449;-58
2024/03/19 05:58:59;;;;;;;13.87;6.57;;;7.40;99.90;;;;;;5027840;28;20192;-59
2024/03/19 06:01:25;;;;;;;15.93;8.23;;;7.40;99.90;;;;;;5027557;28;20872;-59
2024/03/19 06:03:50;;;;;;;21.37;7.70;;;7.40;99.90;;;;;;5027275;28;20282;-63
2024/03/19 06:06:16;;;;;;;15.87;6.70;;;7.40;99.90;;;;;;5027978;28;20647;-63
2024/03/19 06:08:43;;;;;;;22.17;5.90;;;7.40;99.90;;;;;;5032059;28;20271;-64
2024/03/19 06:11:09;;;;;;;11.90;6.50;;;7.40;99.90;;;;;;5027522;28;20254;-63
2024/03/19 06:13:34;;;;;;;12.40;5.87;;;7.40;99.90;;;;;;5005845;28;21130;-63
2024/03/19 06:16:01;;;;;;;11.90;5.47;;;7.40;99.90;;;;;;5030322;28;20269;-63
2024/03/19 06:18:27;;;;;;;10.27;5.83;;;7.30;99.90;;;;;;5023508;28;20184;-63
2024/03/19 06:20:52;;;;;;;12.43;5.47;;;7.30;99.90;;;;;;5023402;28;20423;-63
2024/03/19 06:23:18;;;;;;;12.77;6.33;;;7.30;99.90;;;;;;5025134;28;20500;-64
2024/03/19 06:25:44;;;;;;;7.03;4.03;;;7.20;99.90;;;;;;5030731;28;20203;-63
2024/03/19 06:28:10;;;;;;;8.10;4.97;;;7.20;99.90;;;;;;5031603;28;20176;-63
2024/03/19 06:30:36;;;;;;;9.47;4.77;;;7.20;99.90;;;;;;5024228;28;20188;-63
2024/03/19 06:33:02;;;;;;;9.17;4.70;;;7.20;99.90;;;;;;5033764;28;20849;-63
2024/03/19 06:35:30;;;;;;;9.83;4.67;;;7.20;99.90;;;;;;5025493;28;20413;-63
2024/03/19 06:37:56;;;;;;;10.07;5.03;;;7.30;99.90;;;;;;5029387;28;20192;-64
2024/03/19 06:40:22;;;;;;;8.93;5.00;;;7.30;99.90;;;;;;5025442;28;20518;-63
2024/03/19 06:42:48;;;;;;;8.03;4.73;;;7.40;99.90;;;;;;5031234;28;20203;-63
2024/03/19 06:45:13;;;;;;;8.57;4.43;;;7.30;99.90;;;;;;5034401;28;20191;-63
2024/03/19 06:47:39;;;;;;;9.00;4.70;;;7.40;99.90;;;;;;5029257;28;20179;-64
2024/03/19 06:50:13;;;;;;;8.40;4.43;;;7.40;99.90;;;;;;5011343;28;20200;-63
2024/03/19 06:52:39;;;;;;;10.87;4.60;;;7.40;99.90;;;;;;5026563;28;20683;-63
2024/03/19 06:55:05;;;;;;;11.20;5.10;;;7.40;99.90;;;;;;5027450;28;20419;-64
2024/03/19 06:57:31;;;;;;;9.33;5.60;;;7.40;99.90;;;;;;5033576;28;21135;-63
2024/03/19 06:59:57;;;;;;;11.87;6.23;;;7.40;99.90;;;;;;5036307;28;21063;-63
2024/03/19 07:02:24;;;;;;;16.97;8.67;;;7.50;99.90;;;;;;5001381;28;20446;-63
2024/03/19 07:04:50;;;;;;;27.10;8.43;;;7.50;99.90;;;;;;5028638;28;20438;-63
2024/03/19 07:07:17;;;;;;;17.73;7.90;;;7.50;99.90;;;;;;5029513;28;20557;-62
2024/03/19 07:09:45;;;;;;;12.40;6.60;;;7.50;99.90;;;;;;5030498;28;20702;-63
2024/03/19 07:12:14;;;;;;;18.43;8.90;;;7.50;99.90;;;;;;5026726;28;20477;-62
2024/03/19 07:14:41;;;;;;;24.93;10.10;;;7.50;99.90;;;;;;5014818;28;20489;-63
2024/03/19 07:17:07;;;;;;;26.47;12.20;;;7.50;99.90;;;;;;5019992;28;20451;-63
2024/03/19 07:19:33;;;;;;;19.80;8.60;;;7.60;99.90;;;;;;5022480;28;20982;-63
2024/03/19 07:21:59;;;;;;;14.10;7.07;;;7.60;99.90;;;;;;5024487;28;20454;-63
2024/03/19 07:24:24;;;;;;;8.33;5.10;;;7.60;99.90;;;;;;5028680;28;20187;-63
2024/03/19 07:26:50;;;;;;;14.60;6.20;;;7.60;99.90;;;;;;5010874;28;20207;-63
2024/03/19 07:29:15;;;;;;;18.50;7.23;;;7.60;99.90;;;;;;5027071;28;20178;-64
2024/03/19 07:31:42;;;;;;;15.53;8.47;;;7.60;99.90;;;;;;5029157;28;20187;-63
2024/03/19 07:34:08;;;;;;;19.20;8.40;;;7.70;99.90;;;;;;5009282;28;20639;-63
2024/03/19 07:36:35;;;;;;;12.43;6.43;;;7.70;99.90;;;;;;5020796;28;20804;-64
2024/03/19 07:39:03;;;;;;;13.40;6.93;;;7.70;99.90;;;;;;5030143;28;20425;-63
2024/03/19 07:41:29;;;;;;;14.77;7.40;;;7.70;99.90;;;;;;5023220;28;20429;-62
2024/03/19 07:43:54;;;;;;;9.60;5.23;;;7.80;99.90;;;;;;5023280;28;20430;-63
2024/03/19 07:46:20;;;;;;;8.97;5.47;;;7.80;99.90;;;;;;5005479;28;20179;-62
2024/03/19 07:48:46;;;;;;;10.80;5.50;;;7.80;99.90;;;;;;5027714;28;20172;-64
2024/03/19 07:51:12;;;;;;;11.90;6.40;;;7.70;99.90;;;;;;5019221;28;21063;-63
2024/03/19 07:53:37;;;;;;;17.13;6.90;;;7.80;99.90;;;;;;5027355;28;20555;-63
2024/03/19 07:56:03;;;;;;;17.77;7.37;;;7.80;99.90;;;;;;5010084;28;20591;-63
2024/03/19 07:58:29;;;;;;;21.53;9.70;;;7.80;99.90;;;;;;5021361;28;20171;-63
2024/03/19 08:00:54;;;;;;;17.83;8.80;;;7.80;99.90;;;;;;5019883;28;21335;-63
2024/03/19 08:03:21;;;;;;;7.03;4.10;;;7.90;99.90;;;;;;5001919;28;20283;-63
2024/03/19 08:05:47;;;;;;;5.60;3.23;;;7.90;99.90;;;;;;5019427;28;20207;-63
2024/03/19 08:08:12;;;;;;;6.13;3.83;;;7.90;99.90;;;;;;5026439;28;20450;-63
2024/03/19 08:10:38;;;;;;;6.90;3.90;;;7.90;99.90;;;;;;5022760;28;20333;-63
2024/03/19 08:13:04;;;;;;;7.70;4.03;;;8.00;99.90;;;;;;5027269;28;20204;-63
2024/03/19 08:15:32;;;;;;;8.83;4.73;;;8.00;99.90;;;;;;5027617;28;20171;-64
2024/03/19 08:17:57;;;;;;;15.77;6.50;;;8.10;99.90;;;;;;5012753;28;20282;-58
2024/03/19 08:20:23;;;;;;;9.40;5.70;;;8.10;99.90;;;;;;5027505;28;21031;-58
2024/03/19 08:22:49;;;;;;;9.13;5.50;;;8.10;99.90;;;;;;5024474;28;20301;-63
2024/03/19 08:25:14;;;;;;;10.17;5.43;;;8.10;99.90;;;;;;5032784;28;20245;-58
2024/03/19 08:27:40;;;;;;;8.87;4.90;;;8.10;99.90;;;;;;5027483;28;20188;-61
2024/03/19 08:30:08;;;;;;;12.03;5.40;;;8.10;99.90;;;;;;5030043;28;20631;-62
2024/03/19 08:32:34;;;;;;;13.23;6.20;;;8.20;99.90;;;;;;5025543;28;20835;-61
2024/03/19 08:35:00;;;;;;;9.50;5.80;;;8.20;99.90;;;;;;5032799;28;20437;-61
2024/03/19 08:37:26;;;;;;;9.10;5.43;;;8.30;99.90;;;;;;5030102;28;20411;-62
2024/03/19 08:39:52;;;;;;;11.10;5.93;;;8.40;99.90;;;;;;5031526;28;20175;-61
2024/03/19 08:42:18;;;;;;;10.77;6.50;;;8.40;99.90;;;;;;5032232;28;20811;-61
2024/03/19 08:44:43;;;;;;;9.87;5.93;;;8.50;99.90;;;;;;5014917;28;20771;-61
2024/03/19 08:47:09;;;;;;;12.00;7.00;;;8.50;99.90;;;;;;5028799;28;20172;-60
2024/03/19 08:49:35;;;;;;;15.13;6.40;;;8.60;99.90;;;;;;5014597;28;20271;-61
2024/03/19 08:52:01;;;;;;;12.00;6.77;;;8.60;99.90;;;;;;5030665;28;20215;-61
2024/03/19 08:54:27;;;;;;;15.53;8.70;;;8.60;99.90;;;;;;5032775;28;20467;-61
2024/03/19 08:56:53;;;;;;;18.87;8.80;;;8.60;99.90;;;;;;5029597;28;20172;-61
2024/03/19 08:59:18;;;;;;;20.90;10.17;;;8.70;99.90;;;;;;5028210;28;20422;-61
2024/03/19 09:01:44;;;;;;;21.07;10.70;;;8.70;99.90;;;;;;5029602;28;20187;-60
2024/03/19 09:04:09;;;;;;;21.13;10.70;;;8.80;99.90;;;;;;5026251;28;20176;-62
2024/03/19 09:06:35;;;;;;;25.80;13.27;;;8.90;99.90;;;;;;5025991;28;20618;-60
2024/03/19 09:09:01;;;;;;;22.60;11.80;;;8.90;99.90;;;;;;5031160;28;20175;-61
2024/03/19 09:11:31;;;;;;;24.07;12.70;;;9.00;99.90;;;;;;5033645;28;20641;-62
2024/03/19 09:13:58;;;;;;;27.70;13.17;;;9.00;99.90;;;;;;5034062;28;20554;-61
2024/03/19 09:16:23;;;;;;;24.40;12.70;;;9.10;99.90;;;;;;5029901;28;20414;-61
2024/03/19 09:18:49;;;;;;;21.67;11.80;;;9.20;99.90;;;;;;5028757;28;20430;-61
2024/03/19 09:21:14;;;;;;;21.30;10.77;;;9.30;99.90;;;;;;5030320;28;20724;-61
2024/03/19 09:23:40;;;;;;;21.37;10.50;;;9.30;99.90;;;;;;5025794;28;20192;-61
2024/03/19 09:26:05;;;;;;;19.67;10.30;;;9.40;99.90;;;;;;5037042;28;20217;-61
2024/03/19 09:28:32;;;;;;;22.73;10.83;;;9.40;99.90;;;;;;5031624;28;20545;-60
2024/03/19 09:31:01;;;;;;;17.97;11.10;;;9.50;99.90;;;;;;5054930;22;20249;-57
2024/03/19 09:33:27;;;;;;;17.93;10.60;;;9.50;99.90;;;;;;5046633;28;20515;-62
2024/03/19 09:35:53;;;;;;;18.60;10.63;;;9.60;99.90;;;;;;5046356;28;20427;-57
2024/03/19 09:38:19;;;;;;;16.00;8.33;;;9.60;99.90;;;;;;5045956;28;20543;-59
2024/03/19 09:40:55;;;;;;;14.67;8.93;;;9.70;99.90;;;;;;5041909;28;20328;-60
2024/03/19 09:43:24;;;;;;;13.57;7.77;;;9.80;99.90;;;;;;5026117;28;20437;-59
2024/03/19 09:45:51;;;;;;;19.77;10.93;;;9.90;99.90;;;;;;5020677;28;20454;-61
2024/03/19 09:48:19;;;;;;;15.30;9.23;;;9.90;99.90;;;;;;5027430;28;20424;-61
2024/03/19 09:50:46;;;;;;;13.33;8.50;;;10.00;99.90;;;;;;5025890;28;20456;-58
2024/03/19 09:53:21;;;;;;;15.17;8.63;;;10.10;99.90;;;;;;5025460;28;20465;-59
2024/03/19 09:55:47;;;;;;;10.93;7.70;;;10.30;99.90;;;;;;5024429;28;20426;-58
2024/03/19 09:58:13;;;;;;;12.77;8.30;;;10.50;99.90;;;;;;5028455;28;20488;-59
2024/03/19 10:00:47;;;;;;;10.43;8.30;;;10.60;99.90;;;;;;5026199;28;20461;-60
2024/03/19 10:03:13;;;;;;;13.77;7.60;;;10.70;99.90;;;;;;5027654;28;20422;-58
2024/03/19 10:05:39;;;;;;;14.40;7.23;;;10.70;99.90;;;;;;5025361;28;20844;-59
2024/03/19 10:08:06;;;;;;;12.67;8.27;;;10.80;99.90;;;;;;5023538;28;20498;-59
2024/03/19 10:10:32;;;;;;;15.00;8.93;;;10.80;99.90;;;;;;5025070;28;20877;-59
2024/03/19 10:12:59;;;;;;;9.23;6.57;;;10.80;99.90;;;;;;5024100;28;20524;-59
2024/03/19 10:15:24;;;;;;;17.70;8.37;;;10.80;99.90;;;;;;5025822;28;20184;-61
2024/03/19 10:17:51;;;;;;;12.13;7.90;;;10.80;99.90;;;;;;5025823;28;20437;-61
2024/03/19 10:20:17;;;;;;;10.80;7.53;;;10.90;99.90;;;;;;5024896;28;20167;-59
2024/03/19 10:22:45;;;;;;;9.80;6.60;;;10.90;99.90;;;;;;5023706;28;20972;-59
2024/03/19 10:25:14;;;;;;;12.10;7.67;;;11.00;99.90;;;;;;5025586;28;20418;-61
2024/03/19 10:27:44;;;;;;;13.77;7.80;;;11.20;99.90;;;;;;5022875;28;20485;-59
2024/03/19 10:30:12;;;;;;;15.10;9.30;;;11.40;99.90;;;;;;5023026;28;20458;-59
2024/03/19 10:32:39;;;;;;;11.17;7.70;;;11.50;99.90;;;;;;5024004;28;20470;-58
2024/03/19 10:35:20;;;;;;;11.37;7.00;;;11.70;99.90;;;;;;5025273;28;20506;-60
2024/03/19 10:37:51;;;;;;;10.40;6.67;;;11.80;99.90;;;;;;5024782;28;20980;-60
2024/03/19 10:40:18;;;;;;;14.57;9.93;;;12.00;99.90;;;;;;5023574;28;20430;-59
2024/03/19 10:42:47;;;;;;;10.43;7.17;;;12.10;99.90;;;;;;5024720;28;20458;-63
2024/03/19 10:45:21;;;;;;;11.77;7.30;;;12.30;99.90;;;;;;5025808;28;20465;-61
2024/03/19 10:47:52;;;;;;;10.40;7.80;;;12.50;99.90;;;;;;5024194;28;20422;-59
2024/03/19 10:50:19;;;;;;;7.70;6.20;;;12.70;99.90;;;;;;5024048;28;20439;-59
2024/03/19 10:52:57;;;;;;;5.80;4.23;;;12.90;99.90;;;;;;5025015;28;20549;-59
2024/03/19 10:55:23;;;;;;;7.23;4.20;;;13.00;99.90;;;;;;5023807;28;20426;-61
2024/03/19 10:57:49;;;;;;;9.87;4.17;;;13.20;99.90;;;;;;5019723;28;20446;-56
2024/03/19 11:00:22;;;;;;;6.23;4.20;;;13.40;99.90;;;;;;5021370;28;20520;-57
2024/03/19 11:02:49;;;;;;;4.70;3.77;;;13.60;99.90;;;;;;5025280;28;20206;-56
2024/03/19 11:05:21;;;;;;;3.77;3.33;;;13.80;99.90;;;;;;5024241;28;20457;-58
2024/03/19 11:07:51;;;;;;;4.80;3.90;;;13.90;99.90;;;;;;5023354;28;20446;-59
2024/03/19 11:10:31;;;;;;;9.90;4.20;;;14.10;99.90;;;;;;5022233;28;20434;-57
2024/03/19 11:13:02;;;;;;;4.67;3.67;;;14.30;99.90;;;;;;5020152;28;20466;-57
2024/03/19 11:15:30;;;;;;;4.23;3.50;;;14.50;99.90;;;;;;5021679;28;20446;-59
2024/03/19 11:17:56;;;;;;;3.80;3.40;;;14.60;99.90;;;;;;5022474;28;20446;-62
2024/03/19 11:20:31;;;;;;;6.90;4.00;;;14.70;99.90;;;;;;5024091;28;20491;-53
2024/03/19 11:22:57;;;;;;;6.50;3.90;;;14.80;99.90;;;;;;5020178;28;20797;-54
2024/03/19 11:25:26;;;;;;;4.50;3.20;;;14.60;99.90;;;;;;5018486;28;20477;-57
2024/03/19 11:27:51;;;;;;;8.13;3.50;;;14.40;99.90;;;;;;5021470;28;20449;-57
2024/03/19 11:30:19;;;;;;;9.10;4.20;;;14.30;99.90;;;;;;5024262;28;20438;-59
2024/03/19 11:32:48;;;;;;;9.90;3.20;;;14.20;99.90;;;;;;5020862;28;20240;-60
2024/03/19 11:35:32;;;;;;;8.40;3.13;;;14.30;99.90;;;;;;5024798;28;20415;-60
2024/03/19 11:37:58;;;;;;;5.40;2.77;;;14.40;99.90;;;;;;5019790;28;20779;-58
2024/03/19 11:40:24;;;;;;;2.87;2.60;;;14.40;99.90;;;;;;5023626;28;20500;-59
2024/03/19 11:42:52;;;;;;;2.93;2.60;;;14.50;99.90;;;;;;5022135;28;20206;-57
2024/03/19 11:45:19;;;;;;;3.67;2.70;;;14.70;99.90;;;;;;5024427;28;20979;-60
2024/03/19 11:47:44;;;;;;;4.93;2.80;;;15.10;99.90;;;;;;5017822;28;20439;-58
2024/03/19 11:50:19;;;;;;;3.33;2.57;;;15.50;99.90;;;;;;5022077;28;20739;-59
2024/03/19 11:52:46;;;;;;;2.50;2.30;;;15.80;99.90;;;;;;5018312;28;20214;-62
2024/03/19 11:55:12;;;;;;;3.53;2.07;;;16.20;99.90;;;;;;5022029;28;20466;-57
2024/03/19 11:57:38;;;;;;;3.17;2.63;;;16.50;99.70;;;;;;5021284;28;20508;-59
2024/03/19 12:00:10;;;;;;;2.47;2.20;;;16.80;94.30;;;;;;5018741;28;21091;-59
2024/03/19 12:02:36;;;;;;;5.17;2.13;;;16.90;81.90;;;;;;5018023;28;20195;-61
2024/03/19 12:05:03;;;;;;;3.00;2.43;;;16.90;78.00;;;;;;5023576;28;20434;-63
2024/03/19 12:07:29;;;;;;;2.90;2.13;;;17.10;79.00;;;;;;5020182;28;20462;-58
2024/03/19 12:09:55;;;;;;;2.67;2.20;;;17.30;78.50;;;;;;5020557;28;20934;-56
2024/03/19 12:12:21;;;;;;;4.13;1.93;;;17.40;77.30;;;;;;5006771;28;20466;-56
2024/03/19 12:14:47;;;;;;;3.00;2.10;;;17.50;74.40;;;;;;5006075;28;20533;-57
2024/03/19 12:17:14;;;;;;;2.83;2.10;;;17.60;72.60;;;;;;5023802;28;20430;-56
2024/03/19 12:19:40;;;;;;;1.73;1.53;;;17.70;72.50;;;;;;5021361;28;20441;-60
2024/03/19 12:22:12;;;;;;;5.50;1.60;;;17.80;71.30;;;;;;5021272;28;20477;-57
2024/03/19 12:24:37;;;;;;;2.50;1.70;;;17.90;67.80;;;;;;5022697;28;20488;-60
2024/03/19 12:27:07;;;;;;;3.77;2.00;;;18.00;69.80;;;;;;5023329;28;20984;-63
2024/03/19 12:29:33;;;;;;;2.83;1.53;;;18.20;69.80;;;;;;5021764;28;20179;-59
2024/03/19 12:32:14;;;;;;;2.70;1.27;;;18.40;67.70;;;;;;5019353;28;20461;-58
2024/03/19 12:37:10;;;;;;;2.47;1.40;;;18.50;61.80;;;;;;5021397;28;20466;-56
2024/03/19 12:39:36;;;;;;;1.87;1.77;;;18.40;61.40;;;;;;5023719;28;20712;-55
2024/03/19 12:42:03;;;;;;;2.00;1.67;;;18.30;62.90;;;;;;5026255;28;20442;-56
2024/03/19 12:44:29;;;;;;;1.67;1.40;;;18.40;62.10;;;;;;5026372;28;20640;-60